AAL537 KDFW-KIAH
Flight info
| Callsign | AAL537 |
|---|---|
| Flight time | 0h 38m |
| Altitude | 27000 |
| Route | DARTZ9 TORNN GUSHR3 |
| Aircraft | B77W/H-SDE1E2E3FGHIJ2J3J4J5M1RWXY/LB1D1 |
Departure
| Time | 2026-05-03 22:37 |
|---|---|
| Airport | Dallas Fort Worth International Airport (KDFW) |
Arrival
| Time | 2026-05-03 23:16 |
|---|---|
| Airport | George Bush Intercontinental Airport (KIAH) |
| Time | Latitude | Longitude | Altitude | Speed | Heading |
|---|---|---|---|---|---|
| 2026-05-03 21:41 | 32.89829 | -97.04592 | 603 ft | 0 kts | 86° |
| 2026-05-03 22:27 | 32.89828 | -97.04601 | 603 ft | 4 kts | 85° |
| 2026-05-03 22:27 | 32.89825 | -97.04633 | 603 ft | 4 kts | 79° |
| 2026-05-03 22:27 | 32.89819 | -97.04664 | 603 ft | 4 kts | 73° |
| 2026-05-03 22:28 | 32.89810 | -97.04694 | 603 ft | 4 kts | 68° |
| 2026-05-03 22:28 | 32.89799 | -97.04724 | 603 ft | 4 kts | 60° |
| 2026-05-03 22:28 | 32.89784 | -97.04750 | 603 ft | 4 kts | 46° |
| 2026-05-03 22:28 | 32.89764 | -97.04767 | 603 ft | 3 kts | 7° |
| 2026-05-03 22:29 | 32.89759 | -97.04768 | 603 ft | 0 kts | 0° |
| 2026-05-03 22:33 | 32.89770 | -97.04768 | 603 ft | 11 kts | 0° |
| 2026-05-03 22:33 | 32.89870 | -97.04767 | 603 ft | 15 kts | 0° |
| 2026-05-03 22:33 | 32.90043 | -97.04762 | 603 ft | 37 kts | 2° |
| 2026-05-03 22:34 | 32.90351 | -97.04754 | 603 ft | 45 kts | 359° |
| 2026-05-03 22:34 | 32.90653 | -97.04757 | 603 ft | 42 kts | 358° |
| 2026-05-03 22:34 | 32.90905 | -97.04761 | 603 ft | 23 kts | 1° |
| 2026-05-03 22:34 | 32.91056 | -97.04765 | 603 ft | 19 kts | 355° |
| 2026-05-03 22:35 | 32.91188 | -97.04783 | 603 ft | 19 kts | 351° |
| 2026-05-03 22:35 | 32.91320 | -97.04797 | 603 ft | 19 kts | 2° |
| 2026-05-03 22:35 | 32.91437 | -97.04794 | 603 ft | 14 kts | 354° |
| 2026-05-03 22:35 | 32.91486 | -97.04854 | 603 ft | 10 kts | 282° |
| 2026-05-03 22:36 | 32.91492 | -97.04910 | 603 ft | 10 kts | 271° |
| 2026-05-03 22:36 | 32.91492 | -97.04956 | 603 ft | 10 kts | 271° |
| 2026-05-03 22:36 | 32.91485 | -97.05034 | 603 ft | 10 kts | 249° |
| 2026-05-03 22:37 | 32.91431 | -97.05077 | 603 ft | 10 kts | 185° |
| 2026-05-03 22:37 | 32.91236 | -97.05076 | 603 ft | 76 kts | 180° |
| 2026-05-03 22:37 | 32.90277 | -97.05078 | 761 ft | 184 kts | 180° |
| 2026-05-03 22:37 | 32.88916 | -97.05053 | 2174 ft | 204 kts | 182° |
| 2026-05-03 22:38 | 32.87493 | -97.05047 | 3450 ft | 212 kts | 182° |
| 2026-05-03 22:38 | 32.85923 | -97.05065 | 3815 ft | 236 kts | 182° |
| 2026-05-03 22:38 | 32.84255 | -97.05093 | 4533 ft | 243 kts | 183° |
| 2026-05-03 22:38 | 32.82572 | -97.05130 | 5420 ft | 242 kts | 183° |
| 2026-05-03 22:39 | 32.80874 | -97.05169 | 6197 ft | 245 kts | 183° |
| 2026-05-03 22:39 | 32.79148 | -97.05210 | 6923 ft | 250 kts | 183° |
| 2026-05-03 22:39 | 32.77384 | -97.05255 | 7582 ft | 255 kts | 183° |
| 2026-05-03 22:39 | 32.75609 | -97.05303 | 8362 ft | 255 kts | 184° |
| 2026-05-03 22:40 | 32.73831 | -97.05348 | 9087 ft | 259 kts | 183° |
| 2026-05-03 22:40 | 32.71994 | -97.05397 | 9699 ft | 266 kts | 184° |
| 2026-05-03 22:40 | 32.70115 | -97.05440 | 10261 ft | 274 kts | 183° |
| 2026-05-03 22:40 | 32.68138 | -97.05463 | 10465 ft | 295 kts | 182° |
| 2026-05-03 22:41 | 32.66003 | -97.05484 | 10713 ft | 322 kts | 182° |
| 2026-05-03 22:41 | 32.63641 | -97.05508 | 10995 ft | 356 kts | 182° |
| 2026-05-03 22:41 | 32.61118 | -97.05347 | 11552 ft | 372 kts | 170° |
| 2026-05-03 22:41 | 32.58702 | -97.04153 | 12458 ft | 381 kts | 149° |
| 2026-05-03 22:42 | 32.56464 | -97.02398 | 13425 ft | 389 kts | 148° |
| 2026-05-03 22:42 | 32.54170 | -97.00631 | 14387 ft | 398 kts | 149° |
| 2026-05-03 22:42 | 32.51822 | -96.98832 | 15320 ft | 406 kts | 148° |
| 2026-05-03 22:42 | 32.49429 | -96.96999 | 16312 ft | 412 kts | 149° |
| 2026-05-03 22:43 | 32.46998 | -96.95142 | 17248 ft | 420 kts | 148° |
| 2026-05-03 22:43 | 32.44525 | -96.93252 | 18189 ft | 427 kts | 148° |
| 2026-05-03 22:43 | 32.42007 | -96.91330 | 18997 ft | 434 kts | 148° |
| 2026-05-03 22:43 | 32.39442 | -96.89374 | 19728 ft | 443 kts | 149° |
| 2026-05-03 22:44 | 32.36828 | -96.87383 | 20474 ft | 451 kts | 149° |
| 2026-05-03 22:44 | 32.34164 | -96.85355 | 21211 ft | 459 kts | 149° |
| 2026-05-03 22:44 | 32.31492 | -96.83324 | 21935 ft | 467 kts | 149° |
| 2026-05-03 22:44 | 32.28731 | -96.81257 | 22616 ft | 474 kts | 152° |
| 2026-05-03 22:45 | 32.25736 | -96.79625 | 23252 ft | 476 kts | 164° |
| 2026-05-03 22:45 | 32.22519 | -96.78412 | 23895 ft | 481 kts | 167° |
| 2026-05-03 22:45 | 32.19298 | -96.77290 | 24619 ft | 483 kts | 168° |
| 2026-05-03 22:45 | 32.16123 | -96.76168 | 25473 ft | 483 kts | 168° |
| 2026-05-03 22:46 | 32.12911 | -96.74987 | 26305 ft | 483 kts | 167° |
| 2026-05-03 22:46 | 32.09698 | -96.73768 | 27003 ft | 488 kts | 167° |
| 2026-05-03 22:46 | 32.06468 | -96.72518 | 27121 ft | 488 kts | 167° |
| 2026-05-03 22:46 | 32.03254 | -96.71261 | 27114 ft | 485 kts | 167° |
| 2026-05-03 22:47 | 32.00053 | -96.70007 | 27120 ft | 484 kts | 167° |
| 2026-05-03 22:47 | 31.96856 | -96.68762 | 27129 ft | 485 kts | 167° |
| 2026-05-03 22:47 | 31.93648 | -96.67518 | 27134 ft | 485 kts | 167° |
| 2026-05-03 22:47 | 31.90438 | -96.66275 | 27127 ft | 486 kts | 167° |
| 2026-05-03 22:48 | 31.87220 | -96.65030 | 27111 ft | 487 kts | 167° |
| 2026-05-03 22:48 | 31.84002 | -96.63790 | 27121 ft | 487 kts | 167° |
| 2026-05-03 22:48 | 31.80777 | -96.62548 | 27126 ft | 487 kts | 167° |
| 2026-05-03 22:48 | 31.77557 | -96.61310 | 27129 ft | 488 kts | 167° |
| 2026-05-03 22:49 | 31.74335 | -96.60072 | 27129 ft | 488 kts | 167° |
| 2026-05-03 22:49 | 31.71106 | -96.58830 | 27129 ft | 487 kts | 167° |
| 2026-05-03 22:49 | 31.67884 | -96.57592 | 27128 ft | 487 kts | 167° |
| 2026-05-03 22:49 | 31.64664 | -96.56355 | 27127 ft | 487 kts | 167° |
| 2026-05-03 22:50 | 31.61440 | -96.55118 | 27110 ft | 486 kts | 167° |
| 2026-05-03 22:50 | 31.58228 | -96.53886 | 27122 ft | 485 kts | 167° |
| 2026-05-03 22:50 | 31.55017 | -96.52656 | 27124 ft | 485 kts | 167° |
| 2026-05-03 22:50 | 31.51819 | -96.51415 | 27128 ft | 485 kts | 166° |
| 2026-05-03 22:51 | 31.48701 | -96.49843 | 27123 ft | 489 kts | 158° |
| 2026-05-03 22:51 | 31.45691 | -96.47966 | 27109 ft | 492 kts | 155° |
| 2026-05-03 22:51 | 31.42683 | -96.45977 | 26523 ft | 500 kts | 154° |
| 2026-05-03 22:51 | 31.39699 | -96.44014 | 25978 ft | 497 kts | 155° |
| 2026-05-03 22:52 | 31.36654 | -96.42073 | 25452 ft | 509 kts | 155° |
| 2026-05-03 22:52 | 31.33504 | -96.40123 | 24851 ft | 510 kts | 156° |
| 2026-05-03 22:52 | 31.31390 | -96.38830 | 24553 ft | 504 kts | 156° |
| 2026-05-03 22:52 | 31.27339 | -96.36354 | 24269 ft | 488 kts | 156° |
| 2026-05-03 22:53 | 31.24365 | -96.34538 | 23934 ft | 478 kts | 156° |
| 2026-05-03 22:53 | 31.21488 | -96.32782 | 23630 ft | 454 kts | 156° |
| 2026-05-03 22:53 | 31.18757 | -96.31115 | 22853 ft | 440 kts | 156° |
| 2026-05-03 22:53 | 31.16043 | -96.29469 | 22233 ft | 439 kts | 156° |
| 2026-05-03 22:54 | 31.13387 | -96.27856 | 21719 ft | 420 kts | 156° |
| 2026-05-03 22:54 | 31.10807 | -96.26290 | 21311 ft | 416 kts | 155° |
| 2026-05-03 22:54 | 31.08251 | -96.24740 | 20833 ft | 413 kts | 155° |
| 2026-05-03 22:54 | 31.05712 | -96.23199 | 20409 ft | 410 kts | 155° |
| 2026-05-03 22:55 | 31.04036 | -96.22183 | 20126 ft | 409 kts | 155° |
| 2026-05-03 22:55 | 31.00682 | -96.20149 | 19572 ft | 405 kts | 155° |
| 2026-05-03 22:55 | 30.98206 | -96.18607 | 19182 ft | 402 kts | 153° |
| 2026-05-03 22:55 | 30.95799 | -96.17049 | 18666 ft | 386 kts | 153° |
| 2026-05-03 22:56 | 30.93484 | -96.15537 | 17641 ft | 379 kts | 153° |
| 2026-05-03 22:56 | 30.91188 | -96.14046 | 16613 ft | 375 kts | 153° |
| 2026-05-03 22:56 | 30.88894 | -96.12565 | 16136 ft | 375 kts | 153° |
| 2026-05-03 22:56 | 30.86611 | -96.11096 | 15708 ft | 373 kts | 152° |
| 2026-05-03 22:57 | 30.84351 | -96.09643 | 15301 ft | 370 kts | 152° |
| 2026-05-03 22:57 | 30.82105 | -96.08200 | 14906 ft | 368 kts | 152° |
| 2026-05-03 22:57 | 30.79871 | -96.06766 | 14473 ft | 365 kts | 152° |
| 2026-05-03 22:57 | 30.77651 | -96.05340 | 14067 ft | 363 kts | 152° |
| 2026-05-03 22:58 | 30.75448 | -96.03925 | 13608 ft | 361 kts | 152° |
| 2026-05-03 22:58 | 30.73283 | -96.02537 | 13175 ft | 358 kts | 152° |
| 2026-05-03 22:58 | 30.71080 | -96.01124 | 12755 ft | 355 kts | 152° |
| 2026-05-03 22:58 | 30.68953 | -95.99762 | 12350 ft | 352 kts | 152° |
| 2026-05-03 22:59 | 30.66816 | -95.98395 | 11945 ft | 349 kts | 152° |
| 2026-05-03 22:59 | 30.65381 | -95.97476 | 11671 ft | 348 kts | 152° |
| 2026-05-03 22:59 | 30.62672 | -95.95742 | 11299 ft | 323 kts | 152° |
| 2026-05-03 22:59 | 30.61362 | -95.94903 | 11062 ft | 315 kts | 152° |
| 2026-05-03 23:00 | 30.56981 | -95.92104 | 10409 ft | 305 kts | 152° |
| 2026-05-03 23:00 | 30.55132 | -95.90923 | 10145 ft | 302 kts | 152° |
| 2026-05-03 23:00 | 30.53920 | -95.90149 | 10023 ft | 298 kts | 152° |
| 2026-05-03 23:01 | 30.51550 | -95.88637 | 9901 ft | 285 kts | 152° |
| 2026-05-03 23:01 | 30.49817 | -95.87538 | 9578 ft | 281 kts | 154° |
| 2026-05-03 23:01 | 30.48004 | -95.86900 | 9219 ft | 268 kts | 175° |
| 2026-05-03 23:01 | 30.46160 | -95.86726 | 8960 ft | 266 kts | 177° |
| 2026-05-03 23:02 | 30.44307 | -95.86545 | 8672 ft | 269 kts | 176° |
| 2026-05-03 23:02 | 30.42410 | -95.86350 | 8273 ft | 280 kts | 175° |
| 2026-05-03 23:02 | 30.40451 | -95.86142 | 7896 ft | 284 kts | 175° |
| 2026-05-03 23:02 | 30.38484 | -95.85928 | 7567 ft | 283 kts | 175° |
| 2026-05-03 23:03 | 30.36511 | -95.85710 | 7242 ft | 284 kts | 175° |
| 2026-05-03 23:03 | 30.35221 | -95.85566 | 7022 ft | 279 kts | 174° |
| 2026-05-03 23:03 | 30.32696 | -95.85284 | 6603 ft | 267 kts | 174° |
| 2026-05-03 23:03 | 30.31487 | -95.85149 | 6433 ft | 260 kts | 174° |
| 2026-05-03 23:04 | 30.29734 | -95.84952 | 6294 ft | 246 kts | 174° |
| 2026-05-03 23:04 | 30.28068 | -95.84764 | 6183 ft | 238 kts | 174° |
| 2026-05-03 23:04 | 30.26401 | -95.84577 | 6151 ft | 248 kts | 174° |
| 2026-05-03 23:04 | 30.24667 | -95.84382 | 6153 ft | 252 kts | 174° |
| 2026-05-03 23:05 | 30.22918 | -95.84186 | 6087 ft | 251 kts | 174° |
| 2026-05-03 23:05 | 30.21131 | -95.83983 | 5989 ft | 261 kts | 174° |
| 2026-05-03 23:05 | 30.19312 | -95.83778 | 5759 ft | 263 kts | 174° |
| 2026-05-03 23:05 | 30.17501 | -95.83592 | 5542 ft | 257 kts | 174° |
| 2026-05-03 23:06 | 30.13798 | -95.83143 | 5239 ft | 264 kts | 173° |
| 2026-05-03 23:06 | 30.11944 | -95.82920 | 5224 ft | 266 kts | 174° |
| 2026-05-03 23:06 | 30.10119 | -95.82707 | 5176 ft | 260 kts | 174° |
| 2026-05-03 23:07 | 30.08349 | -95.82502 | 4774 ft | 252 kts | 174° |
| 2026-05-03 23:07 | 30.06608 | -95.82302 | 4207 ft | 250 kts | 174° |
| 2026-05-03 23:07 | 30.04894 | -95.82014 | 3635 ft | 248 kts | 162° |
| 2026-05-03 23:07 | 30.03467 | -95.80951 | 3053 ft | 245 kts | 133° |
| 2026-05-03 23:08 | 30.02452 | -95.79412 | 2514 ft | 238 kts | 127° |
| 2026-05-03 23:08 | 30.01530 | -95.77945 | 2476 ft | 212 kts | 127° |
| 2026-05-03 23:08 | 30.00876 | -95.76552 | 2426 ft | 190 kts | 102° |
| 2026-05-03 23:08 | 30.00774 | -95.75022 | 2317 ft | 195 kts | 95° |
| 2026-05-03 23:09 | 30.00711 | -95.73470 | 2245 ft | 191 kts | 95° |
| 2026-05-03 23:09 | 30.00682 | -95.71954 | 2108 ft | 188 kts | 93° |
| 2026-05-03 23:09 | 30.00667 | -95.69079 | 1994 ft | 187 kts | 92° |
| 2026-05-03 23:10 | 30.00666 | -95.67594 | 1972 ft | 186 kts | 92° |
| 2026-05-03 23:10 | 30.00669 | -95.66103 | 2002 ft | 184 kts | 92° |
| 2026-05-03 23:10 | 30.00671 | -95.64619 | 2205 ft | 187 kts | 92° |
| 2026-05-03 23:10 | 30.00674 | -95.63122 | 2529 ft | 186 kts | 92° |
| 2026-05-03 23:11 | 30.00674 | -95.61619 | 2895 ft | 188 kts | 93° |
| 2026-05-03 23:11 | 30.00676 | -95.60100 | 3003 ft | 193 kts | 92° |
| 2026-05-03 23:11 | 30.00678 | -95.58567 | 2996 ft | 189 kts | 92° |
| 2026-05-03 23:11 | 30.00692 | -95.57054 | 2990 ft | 186 kts | 93° |
| 2026-05-03 23:12 | 30.00683 | -95.55546 | 2993 ft | 188 kts | 94° |
| 2026-05-03 23:12 | 30.00637 | -95.54034 | 3008 ft | 189 kts | 95° |
| 2026-05-03 23:12 | 30.00652 | -95.52538 | 3003 ft | 190 kts | 91° |
| 2026-05-03 23:12 | 30.00706 | -95.51021 | 2990 ft | 189 kts | 90° |
| 2026-05-03 23:13 | 30.00721 | -95.49515 | 2818 ft | 186 kts | 96° |
| 2026-05-03 23:13 | 30.00688 | -95.48051 | 2470 ft | 179 kts | 93° |
| 2026-05-03 23:13 | 30.00679 | -95.46666 | 2072 ft | 168 kts | 94° |
| 2026-05-03 23:13 | 30.00696 | -95.45334 | 1779 ft | 165 kts | 91° |
| 2026-05-03 23:14 | 30.00729 | -95.44030 | 1513 ft | 157 kts | 91° |
| 2026-05-03 23:14 | 30.00731 | -95.42829 | 1119 ft | 143 kts | 97° |
| 2026-05-03 23:14 | 30.00706 | -95.41697 | 930 ft | 142 kts | 90° |
| 2026-05-03 23:14 | 30.00718 | -95.40588 | 900 ft | 137 kts | 91° |
| 2026-05-03 23:15 | 30.00732 | -95.39445 | 699 ft | 141 kts | 98° |
| 2026-05-03 23:15 | 30.00721 | -95.38344 | 571 ft | 143 kts | 96° |
| 2026-05-03 23:15 | 30.00721 | -95.37194 | 310 ft | 139 kts | 97° |
| 2026-05-03 23:15 | 30.00716 | -95.36124 | 174 ft | 130 kts | 93° |
| 2026-05-03 23:16 | 30.00721 | -95.35148 | 104 ft | 113 kts | 95° |
| 2026-05-03 23:16 | 30.00716 | -95.34346 | 103 ft | 79 kts | 89° |
| 2026-05-03 23:16 | 30.00691 | -95.34015 | 108 ft | 32 kts | 110° |
| 2026-05-03 23:16 | 30.00593 | -95.33810 | 106 ft | 28 kts | 116° |
| 2026-05-03 23:17 | 30.00555 | -95.33619 | 107 ft | 21 kts | 89° |
| 2026-05-03 23:17 | 30.00555 | -95.33442 | 108 ft | 23 kts | 90° |
| 2026-05-03 23:17 | 30.00546 | -95.33250 | 107 ft | 25 kts | 100° |
| 2026-05-03 23:17 | 30.00470 | -95.33075 | 107 ft | 24 kts | 121° |
| 2026-05-03 23:18 | 30.00383 | -95.32942 | 108 ft | 21 kts | 130° |
| 2026-05-03 23:18 | 30.00284 | -95.32802 | 107 ft | 24 kts | 127° |
| 2026-05-03 23:18 | 30.00175 | -95.32650 | 107 ft | 17 kts | 130° |
| 2026-05-03 23:18 | 30.00106 | -95.32570 | 107 ft | 15 kts | 143° |
| 2026-05-03 23:19 | 30.00010 | -95.32540 | 107 ft | 14 kts | 179° |
| 2026-05-03 23:19 | 29.99909 | -95.32538 | 107 ft | 14 kts | 179° |
| 2026-05-03 23:19 | 29.99808 | -95.32540 | 107 ft | 14 kts | 185° |
| 2026-05-03 23:19 | 29.99715 | -95.32539 | 107 ft | 13 kts | 180° |
| 2026-05-03 23:20 | 29.99637 | -95.32539 | 107 ft | 4 kts | 179° |
| 2026-05-03 23:20 | 29.99606 | -95.32539 | 107 ft | 5 kts | 180° |
| 2026-05-03 23:20 | 29.99506 | -95.32542 | 107 ft | 31 kts | 180° |
| 2026-05-03 23:20 | 29.99280 | -95.32541 | 107 ft | 30 kts | 179° |
| 2026-05-03 23:21 | 29.99140 | -95.32542 | 108 ft | 17 kts | 194° |
| 2026-05-03 23:21 | 29.99091 | -95.32631 | 107 ft | 14 kts | 271° |
| 2026-05-03 23:21 | 29.99091 | -95.32746 | 107 ft | 15 kts | 271° |
| 2026-05-03 23:21 | 29.99091 | -95.32853 | 107 ft | 0 kts | 269° |
| 2026-05-03 23:22 | 29.99092 | -95.32910 | 107 ft | 19 kts | 270° |
| 2026-05-03 23:22 | 29.99090 | -95.33155 | 108 ft | 24 kts | 269° |
| 2026-05-03 23:22 | 29.99090 | -95.33335 | 106 ft | 22 kts | 268° |
| 2026-05-03 23:23 | 29.99087 | -95.33516 | 107 ft | 22 kts | 270° |
| 2026-05-03 23:23 | 29.99088 | -95.33694 | 107 ft | 21 kts | 270° |
| 2026-05-03 23:23 | 29.99090 | -95.33860 | 107 ft | 17 kts | 269° |
| 2026-05-03 23:23 | 29.99076 | -95.33963 | 106 ft | 9 kts | 236° |
| 2026-05-03 23:24 | 29.99024 | -95.33995 | 104 ft | 8 kts | 212° |
| 2026-05-03 23:24 | 29.99000 | -95.34044 | 103 ft | 5 kts | 260° |
| 2026-05-03 23:24 | 29.99001 | -95.34080 | 103 ft | 5 kts | 271° |
| 2026-05-03 23:24 | 29.99002 | -95.34095 | 103 ft | 1 kts | 276° |
| 2026-05-03 23:25 | 29.99002 | -95.34104 | 103 ft | 2 kts | 277° |
| 2026-05-03 23:25 | 29.99003 | -95.34110 | 103 ft | 0 kts | 277° |